Time;durP1;ratioP1;P1;durP2;ratioP2;P2;SDS_P1;SDS_P2;PMS_P1;PMS_P2;Temp;Humidity;BMP_temperature;BMP_pressure;BME280_temperature;BME280_humidity;BME280_pressure;Samples;Min_cycle;Max_cycle;Signal;HPM_P1;HPM_P2
2022/04/11 00:00:19;;;;;;;7.70;5.10;;;;;;;2.58;62.05;101397.72;692958;28;1248;-84
2022/04/11 00:00:39;;;;;;;8.30;5.38;;;;;;;2.67;62.06;101412.97;687530;28;1188;-83
2022/04/11 00:01:00;;;;;;;8.55;5.55;;;;;;;2.62;62.52;101406.56;685041;28;1077;-84
2022/04/11 00:01:21;;;;;;;6.20;5.20;;;;;;;2.65;62.30;101403.31;686965;28;1179;-84
2022/04/11 00:01:43;;;;;;;5.40;4.90;;;;;;;2.65;62.58;101406.81;689089;28;1246;-83
2022/04/11 00:02:04;;;;;;;5.82;4.57;;;;;;;2.66;62.04;101411.19;693084;28;1283;-84
2022/04/11 00:02:24;;;;;;;5.80;4.47;;;;;;;2.58;62.07;101402.00;692961;28;1124;-84
2022/04/11 00:02:45;;;;;;;6.32;4.45;;;;;;;2.63;62.26;101404.91;692342;28;1327;-84
2022/04/11 00:03:05;;;;;;;5.17;4.50;;;;;;;2.66;62.27;101411.19;690355;28;1071;-84
2022/04/11 00:03:26;;;;;;;5.70;4.80;;;;;;;2.66;61.97;101418.91;685156;28;957;-84
2022/04/11 00:03:47;;;;;;;5.38;4.88;;;;;;;2.67;62.32;101412.06;690359;28;1257;-84
2022/04/11 00:04:08;;;;;;;5.97;5.00;;;;;;;2.56;61.78;101393.25;690467;28;1086;-84
2022/04/11 00:04:29;;;;;;;6.85;4.95;;;;;;;2.63;62.47;101404.91;693101;28;1306;-84
2022/04/11 00:04:50;;;;;;;7.18;4.88;;;;;;;2.58;62.24;101402.00;695733;28;1391;-84
2022/04/11 00:05:10;;;;;;;7.35;4.80;;;;;;;2.56;61.92;101403.56;690180;28;1364;-83
2022/04/11 00:05:31;;;;;;;7.68;4.80;;;;;;;2.57;62.23;101402.78;688051;28;1191;-84
2022/04/11 00:05:52;;;;;;;7.07;5.20;;;;;;;2.55;62.28;101401.78;688249;28;1248;-83
2022/04/11 00:06:13;;;;;;;6.43;5.13;;;;;;;2.60;62.20;101405.56;687659;28;1178;-84
2022/04/11 00:06:33;;;;;;;5.75;5.15;;;;;;;2.53;62.17;101395.63;688001;28;1148;-84
2022/04/11 00:06:54;;;;;;;5.90;5.20;;;;;;;2.56;61.88;101403.56;687662;28;1381;-84
2022/04/11 00:07:14;;;;;;;6.10;5.10;;;;;;;2.53;62.25;101398.19;687710;28;1112;-83
2022/04/11 00:07:35;;;;;;;5.97;5.00;;;;;;;2.50;62.38;101396.28;687509;28;1078;-83
2022/04/11 00:07:55;;;;;;;6.47;4.80;;;;;;;2.56;62.01;101404.47;685149;28;959;-84
2022/04/11 00:08:17;;;;;;;6.53;4.80;;;;;;;2.50;62.34;101398.88;685130;28;1271;-84
2022/04/11 00:08:38;;;;;;;6.50;4.68;;;;;;;2.55;62.40;101401.78;686099;28;1187;-84
2022/04/11 00:08:58;;;;;;;6.13;4.65;;;;;;;2.54;62.48;101395.75;693036;28;1287;-84
2022/04/11 00:09:19;;;;;;;6.45;4.88;;;;;;;2.64;62.30;101423.06;690309;28;1112;-85
2022/04/11 00:09:39;;;;;;;6.93;5.13;;;;;;;2.57;61.89;101405.38;688369;28;1149;-83
2022/04/11 00:10:00;;;;;;;6.68;5.45;;;;;;;2.57;62.51;101402.78;690419;28;861;-83
2022/04/11 00:10:21;;;;;;;6.88;5.38;;;;;;;2.56;62.26;101404.47;684900;28;1202;-83
2022/04/11 00:10:41;;;;;;;6.30;5.13;;;;;;;2.61;62.52;101412.53;688755;28;1178;-84
2022/04/11 00:11:02;;;;;;;5.47;4.68;;;;;;;2.55;62.02;101396.63;690352;28;1191;-83
2022/04/11 00:11:22;;;;;;;7.90;4.83;;;;;;;2.57;61.96;101402.78;689266;28;1118;-84
2022/04/11 00:11:43;;;;;;;7.83;4.97;;;;;;;2.52;62.34;101399.00;686624;28;1231;-83
2022/04/11 00:12:04;;;;;;;7.35;5.05;;;;;;;2.53;62.34;101409.41;690272;28;1109;-84
2022/04/11 00:12:24;;;;;;;5.57;5.05;;;;;;;2.51;62.44;101400.66;690344;28;1275;-83
2022/04/11 00:12:45;;;;;;;5.90;5.15;;;;;;;2.54;62.65;101405.13;692380;28;1295;-84
2022/04/11 00:13:07;;;;;;;5.63;5.00;;;;;;;2.49;62.35;101402.25;690423;28;1024;-84
2022/04/11 00:13:27;;;;;;;5.43;4.70;;;;;;;2.51;62.39;101404.94;693087;28;1122;-83
2022/04/11 00:13:48;;;;;;;4.97;4.47;;;;;;;2.55;62.21;101417.22;690303;28;1361;-83
2022/04/11 00:14:09;;;;;;;5.15;4.65;;;;;;;2.51;62.28;101397.19;693086;28;1677;-83
2022/04/11 00:14:29;;;;;;;5.57;5.07;;;;;;;2.49;62.25;101404.81;687614;28;1155;-83
2022/04/11 00:14:50;;;;;;;5.78;5.20;;;;;;;2.44;62.34;101404.50;685023;28;1171;-84
2022/04/11 00:15:16;;;;;;;5.75;5.10;;;;;;;2.51;62.22;101399.78;689738;28;1926;-84
2022/04/11 00:15:39;;;;;;;5.50;4.80;;;;;;;2.50;62.36;101408.31;690988;28;1187;-84
2022/04/11 00:16:00;;;;;;;6.10;4.75;;;;;;;2.46;62.29;101395.19;685005;28;1268;-84
2022/04/11 00:16:20;;;;;;;6.43;4.90;;;;;;;2.42;62.61;101400.91;687752;28;1040;-84
2022/04/11 00:16:41;;;;;;;6.17;5.10;;;;;;;2.46;62.68;101407.19;685071;28;814;-84
2022/04/11 00:17:02;;;;;;;5.53;5.03;;;;;;;2.42;62.23;101400.91;687401;28;1154;-84
2022/04/11 00:17:23;;;;;;;5.30;4.82;;;;;;;2.48;62.64;101409.84;687607;28;874;-84
2022/04/11 00:17:44;;;;;;;5.43;4.90;;;;;;;2.49;62.68;101409.97;695777;28;1382;-83
2022/04/11 00:18:05;;;;;;;5.80;5.20;;;;;;;2.52;62.67;101410.22;690233;28;1182;-84
2022/04/11 00:18:26;;;;;;;6.28;5.47;;;;;;;2.51;62.55;101416.13;692255;28;1203;-84
2022/04/11 00:18:47;;;;;;;6.47;5.40;;;;;;;2.48;62.53;101399.53;687516;28;1325;-84
2022/04/11 00:19:10;;;;;;;6.35;5.25;;;;;;;2.53;62.17;101408.50;690271;28;1081;-84
2022/04/11 00:19:30;;;;;;;5.97;5.03;;;;;;;2.48;62.18;101404.69;689789;28;1162;-85
2022/04/11 00:19:51;;;;;;;5.53;5.00;;;;;;;2.44;62.47;101394.19;689938;28;1374;-84
2022/04/11 00:20:11;;;;;;;5.37;4.87;;;;;;;2.48;62.33;101410.75;692872;28;1168;-84
2022/04/11 00:20:33;;;;;;;5.63;4.90;;;;;;;2.45;62.27;101406.28;687472;28;1070;-83
2022/04/11 00:20:53;;;;;;;5.70;4.78;;;;;;;2.45;62.70;101395.09;690319;28;859;-84
2022/04/11 00:21:14;;;;;;;5.40;4.60;;;;;;;2.48;62.23;101405.59;687717;28;1098;-83
2022/04/11 00:21:35;;;;;;;4.90;4.40;;;;;;;2.45;62.54;101401.13;686701;28;1100;-84
2022/04/11 00:21:55;;;;;;;4.93;4.43;;;;;;;2.46;62.38;101392.59;685711;28;1162;-84
2022/04/11 00:22:16;;;;;;;5.85;4.65;;;;;;;2.49;62.68;101402.25;690399;28;1188;-83
2022/04/11 00:22:36;;;;;;;6.03;4.90;;;;;;;2.47;62.79;101398.66;690274;28;1163;-83
2022/04/11 00:22:57;;;;;;;6.27;5.03;;;;;;;2.52;62.44;101401.56;690491;28;846;-83
2022/04/11 00:23:18;;;;;;;6.60;5.00;;;;;;;2.46;62.29;101402.91;690177;28;1172;-85
2022/04/11 00:23:38;;;;;;;7.45;4.93;;;;;;;2.48;62.52;101394.38;691511;28;1056;-84
2022/04/11 00:23:59;;;;;;;7.53;4.95;;;;;;;2.50;62.61;101398.00;695840;28;1136;-84
2022/04/11 00:24:20;;;;;;;5.78;4.72;;;;;;;2.43;62.65;101392.41;692918;28;1709;-83
2022/04/11 00:24:41;;;;;;;5.13;4.60;;;;;;;2.45;62.68;101395.97;695827;28;1380;-84
2022/04/11 00:25:04;;;;;;;5.78;4.93;;;;;;;2.49;62.45;101396.22;694674;28;1794;-84
2022/04/11 00:25:25;;;;;;;5.78;4.80;;;;;;;2.49;62.52;101394.50;687569;28;1848;-83
2022/04/11 00:25:45;;;;;;;5.15;4.65;;;;;;;2.46;62.46;101392.59;690376;28;1056;-84
2022/04/11 00:26:06;;;;;;;4.80;4.38;;;;;;;2.45;62.35;101390.81;691908;28;1571;-83
2022/04/11 00:26:27;;;;;;;5.25;4.63;;;;;;;2.53;62.59;101404.25;687740;28;993;-84
2022/04/11 00:26:47;;;;;;;6.88;5.28;;;;;;;2.44;62.19;101389.03;690935;28;1257;-84
2022/04/11 00:27:08;;;;;;;7.43;5.40;;;;;;;2.50;62.17;101403.16;690248;28;1118;-83
2022/04/11 00:27:29;;;;;;;8.23;5.43;;;;;;;2.44;62.42;101389.03;690337;28;1262;-84
2022/04/11 00:27:52;;;;;;;8.55;5.07;;;;;;;2.43;62.03;101391.50;687782;28;1297;-83
2022/04/11 00:28:12;;;;;;;7.22;4.65;;;;;;;2.43;62.40;101392.41;690124;28;1509;-84
2022/04/11 00:28:33;;;;;;;8.48;4.57;;;;;;;2.50;62.19;101404.03;688125;28;933;-84
2022/04/11 00:28:54;;;;;;;7.90;4.60;;;;;;;2.43;62.02;101391.50;687726;28;912;-83
2022/04/11 00:29:14;;;;;;;8.98;5.00;;;;;;;2.45;62.83;101398.53;690327;28;997;-83
2022/04/11 00:29:35;;;;;;;7.70;4.88;;;;;;;2.42;62.55;101393.19;690656;28;1099;-84
2022/04/11 00:29:56;;;;;;;7.75;4.90;;;;;;;2.40;62.42;101386.13;692845;28;814;-83
2022/04/11 00:30:16;;;;;;;7.10;4.80;;;;;;;2.49;62.33;101401.38;690296;28;1186;-84
2022/04/11 00:30:36;;;;;;;5.22;4.55;;;;;;;2.50;62.33;101413.44;685762;28;1191;-84
2022/04/11 00:30:57;;;;;;;4.77;4.37;;;;;;;2.44;62.42;101391.59;687896;28;1268;-84
2022/04/11 00:31:17;;;;;;;4.88;4.45;;;;;;;2.43;62.08;101391.50;690234;28;1186;-83
2022/04/11 00:31:38;;;;;;;5.75;4.50;;;;;;;2.43;62.73;101392.41;694094;28;1145;-84
2022/04/11 00:31:59;;;;;;;6.33;4.60;;;;;;;2.49;62.07;101411.66;685741;28;1456;-83
2022/04/11 00:32:20;;;;;;;6.40;4.60;;;;;;;2.44;62.35;101398.44;684913;28;1251;-84
2022/04/11 00:32:45;;;;;;;6.25;4.70;;;;;;;2.47;62.48;101403.81;685922;28;1163;-83
2022/04/11 00:33:06;;;;;;;5.20;4.47;;;;;;;2.36;62.57;101382.44;684930;28;1564;-84
2022/04/11 00:33:26;;;;;;;5.20;4.30;;;;;;;2.46;62.65;101402.91;684966;28;1099;-83
2022/04/11 00:33:47;;;;;;;5.10;4.40;;;;;;;2.42;62.86;101394.84;684727;28;1509;-83
2022/04/11 00:34:08;;;;;;;5.50;4.60;;;;;;;2.40;62.82;101392.16;686589;28;1784;-84
2022/04/11 00:34:28;;;;;;;5.23;4.73;;;;;;;2.41;62.77;101398.22;687608;28;906;-83
2022/04/11 00:34:49;;;;;;;5.72;4.85;;;;;;;2.39;62.31;101390.38;690516;28;889;-84
2022/04/11 00:35:10;;;;;;;5.45;4.72;;;;;;;2.44;62.71;101407.06;689791;28;1481;-84
2022/04/11 00:35:31;;;;;;;5.90;4.57;;;;;;;2.40;62.46;101401.59;690027;28;963;-84
2022/04/11 00:35:51;;;;;;;6.13;4.63;;;;;;;2.42;62.28;101395.75;689849;28;798;-82
2022/04/11 00:36:12;;;;;;;6.43;4.75;;;;;;;2.36;62.44;101385.00;684784;28;1591;-84
2022/04/11 00:36:32;;;;;;;5.60;4.87;;;;;;;2.38;62.33;101393.75;687891;28;1170;-84
2022/04/11 00:36:53;;;;;;;5.18;4.68;;;;;;;2.35;62.65;101388.38;689782;28;1524;-83
2022/04/11 00:37:14;;;;;;;5.07;4.57;;;;;;;2.40;62.60;101386.13;689981;28;1521;-84
2022/04/11 00:37:34;;;;;;;5.10;4.60;;;;;;;2.45;62.40;101401.13;689451;28;1123;-83
2022/04/11 00:37:55;;;;;;;4.88;4.47;;;;;;;2.43;62.98;101392.41;684852;28;807;-83
2022/04/11 00:38:16;;;;;;;4.78;4.28;;;;;;;2.39;62.63;101395.53;687633;28;1155;-84
2022/04/11 00:38:36;;;;;;;4.43;4.03;;;;;;;2.41;62.79;101398.22;683036;28;1497;-83
2022/04/11 00:38:57;;;;;;;4.63;4.10;;;;;;;2.36;62.45;101392.75;687665;28;1444;-83
2022/04/11 00:39:17;;;;;;;4.88;4.38;;;;;;;2.41;62.45;101393.97;687580;28;1141;-83
2022/04/11 00:39:38;;;;;;;5.00;4.50;;;;;;;2.37;62.89;101385.94;686942;28;1300;-83
2022/04/11 00:39:58;;;;;;;5.00;4.50;;;;;;;2.44;62.56;101399.34;687664;28;842;-83
2022/04/11 00:40:19;;;;;;;4.78;4.28;;;;;;;2.39;62.56;101398.09;682321;29;1090;-83
2022/04/11 00:40:40;;;;;;;4.57;4.18;;;;;;;2.38;62.95;101392.88;690478;28;1150;-83
2022/04/11 00:41:01;;;;;;;5.47;4.28;;;;;;;2.36;62.59;101381.53;690396;28;1634;-83
2022/04/11 00:41:21;;;;;;;6.77;4.40;;;;;;;2.40;62.34;101392.16;690231;28;1078;-83
2022/04/11 00:41:42;;;;;;;7.53;4.60;;;;;;;2.43;62.51;101397.53;684732;28;1262;-84
2022/04/11 00:42:13;;;;;;;6.60;5.00;;;;;;;2.40;62.65;101396.44;687565;28;1157;-84
2022/04/11 00:42:34;;;;;;;6.10;4.97;;;;;;;2.32;62.63;101386.47;690198;28;1237;-84
2022/04/11 00:42:55;;;;;;;6.25;4.63;;;;;;;2.44;62.77;101404.50;687793;28;784;-84
2022/04/11 00:43:35;;;;;;;6.53;4.90;;;;;;;2.36;62.53;101394.41;687665;28;1102;-84
2022/04/11 00:43:56;;;;;;;5.00;4.50;;;;;;;2.36;62.86;101399.56;693054;28;1281;-83
2022/04/11 00:44:16;;;;;;;4.57;4.07;;;;;;;2.38;62.44;101404.03;690069;28;1829;-83
2022/04/11 00:44:37;;;;;;;4.78;3.95;;;;;;;2.42;62.74;101406.06;690044;28;1234;-84
2022/04/11 00:44:59;;;;;;;4.97;4.10;;;;;;;2.35;62.55;101390.97;684967;28;914;-83
2022/04/11 00:45:20;;;;;;;5.95;4.45;;;;;;;2.32;62.59;101388.16;687619;28;1021;-83
2022/04/11 00:45:40;;;;;;;6.15;4.60;;;;;;;2.34;62.76;101381.44;689099;28;1158;-83
2022/04/11 00:46:02;;;;;;;6.27;4.53;;;;;;;2.46;62.68;101402.91;685735;28;1604;-84
2022/04/11 00:46:23;;;;;;;6.05;4.32;;;;;;;2.43;62.62;101404.38;689197;28;1230;-83
2022/04/11 00:46:43;;;;;;;5.85;4.50;;;;;;;2.38;62.92;101386.00;684167;28;1184;-83
2022/04/11 00:47:04;;;;;;;5.00;4.50;;;;;;;2.37;63.01;101391.06;687442;28;1607;-84
2022/04/11 00:47:24;;;;;;;4.78;4.28;;;;;;;2.39;62.90;101400.69;690350;28;948;-83
2022/04/11 00:47:45;;;;;;;4.30;3.90;;;;;;;2.37;62.92;101385.94;687919;28;1087;-84
2022/04/11 00:48:07;;;;;;;4.47;4.07;;;;;;;2.41;63.03;101391.41;690092;28;1096;-83
2022/04/11 00:48:28;;;;;;;4.63;4.20;;;;;;;2.36;62.63;101381.53;690257;28;1057;-83
2022/04/11 00:48:48;;;;;;;4.90;4.28;;;;;;;2.40;62.76;101396.44;691110;28;1319;-83
2022/04/11 00:49:09;;;;;;;4.88;4.30;;;;;;;2.45;62.71;101395.97;687881;28;1188;-84
2022/04/11 00:49:30;;;;;;;4.82;4.30;;;;;;;2.38;62.96;101385.13;692272;28;1516;-83
2022/04/11 00:49:58;;;;;;;5.00;4.60;;;;;;;2.37;62.64;101380.78;692672;28;1784;-83
2022/04/11 00:50:19;;;;;;;5.38;4.63;;;;;;;2.41;62.64;101387.91;692927;28;1086;-83
2022/04/11 00:50:39;;;;;;;5.95;4.50;;;;;;;2.38;62.95;101379.97;693087;28;1123;-84
2022/04/11 00:51:05;;;;;;;6.87;4.10;;;;;;;2.50;62.91;101403.16;690456;28;752;-83
2022/04/11 00:51:26;;;;;;;6.20;4.20;;;;;;;2.50;62.98;101403.16;690285;28;1135;-83
2022/04/11 00:51:46;;;;;;;6.07;4.50;;;;;;;2.42;62.82;101387.13;690939;28;1284;-83
2022/04/11 00:52:07;;;;;;;5.03;4.60;;;;;;;2.43;62.71;101387.25;685331;28;1197;-83
2022/04/11 00:52:31;;;;;;;5.00;4.60;;;;;;;2.40;62.84;101381.84;690327;28;1037;-84
2022/04/11 00:52:54;;;;;;;5.35;4.50;;;;;;;2.51;62.60;101402.34;690308;28;811;-83
2022/04/11 00:53:14;;;;;;;5.40;4.20;;;;;;;2.43;62.62;101381.19;687612;28;1317;-83
2022/04/11 00:53:40;;;;;;;6.07;4.28;;;;;;;2.48;62.78;101396.97;684824;28;1199;-83
2022/04/11 00:54:01;;;;;;;5.78;4.22;;;;;;;2.49;62.65;101396.22;687726;28;830;-84
2022/04/11 00:54:22;;;;;;;5.85;4.25;;;;;;;2.45;62.60;101392.50;690175;28;1207;-83
2022/04/11 00:54:43;;;;;;;5.07;4.30;;;;;;;2.40;62.61;101392.16;689050;28;1366;-83
2022/04/11 00:55:07;;;;;;;4.60;4.20;;;;;;;2.46;62.81;101395.19;690272;28;1082;-84
2022/04/11 00:55:28;;;;;;;4.75;4.35;;;;;;;2.42;62.73;101394.84;693102;28;1898;-83
2022/04/11 00:55:50;;;;;;;4.75;4.30;;;;;;;2.41;62.71;101387.91;686215;28;1303;-83
2022/04/11 00:56:13;;;;;;;4.93;4.43;;;;;;;2.37;63.05;101385.94;688646;28;1125;-84
2022/04/11 00:56:38;;;;;;;5.78;4.50;;;;;;;2.41;62.36;101390.50;684631;28;1259;-83
2022/04/11 00:56:58;;;;;;;5.53;4.47;;;;;;;2.37;62.71;101391.06;684987;28;867;-83
2022/04/11 00:57:21;;;;;;;4.90;4.20;;;;;;;2.39;62.94;101390.38;687581;28;1197;-84
2022/04/11 00:57:42;;;;;;;5.10;4.28;;;;;;;2.36;62.94;101379.88;694134;28;1469;-83
2022/04/11 00:58:05;;;;;;;5.25;4.18;;;;;;;2.46;62.60;101396.88;684966;28;1456;-83
2022/04/11 00:58:26;;;;;;;5.10;4.20;;;;;;;2.36;62.58;101381.53;687592;28;980;-83
2022/04/11 00:58:47;;;;;;;6.75;4.07;;;;;;;2.41;62.75;101393.06;690362;28;1345;-84
2022/04/11 00:59:10;;;;;;;6.70;4.10;;;;;;;2.39;63.22;101390.38;690464;28;1542;-84
2022/04/11 00:59:31;;;;;;;6.15;4.30;;;;;;;2.38;62.91;101392.88;689752;28;1120;-84
2022/04/11 00:59:53;;;;;;;5.20;4.68;;;;;;;2.36;62.97;101373.81;690213;28;1291;-84
2022/04/11 01:00:14;;;;;;;5.05;4.55;;;;;;;2.34;62.48;101376.28;690318;28;1670;-84
2022/04/11 01:00:36;;;;;;;4.70;4.30;;;;;;;2.35;62.93;101383.22;689599;28;1182;-83
2022/04/11 01:00:57;;;;;;;6.43;4.38;;;;;;;2.36;62.89;101392.75;682165;28;1156;-84
2022/04/11 01:01:18;;;;;;;6.07;4.40;;;;;;;2.45;62.94;101400.25;687309;28;1571;-83
2022/04/11 01:01:39;;;;;;;6.60;4.57;;;;;;;2.36;62.84;101378.94;687355;28;1215;-84
2022/04/11 01:02:04;;;;;;;4.90;4.40;;;;;;;2.48;62.65;101404.69;687951;28;1606;-83
2022/04/11 01:02:26;;;;;;;5.38;4.65;;;;;;;2.42;62.92;101394.84;690288;28;935;-83
2022/04/11 01:02:46;;;;;;;5.47;4.50;;;;;;;2.40;62.84;101399.88;690388;28;1290;-83
2022/04/11 01:03:08;;;;;;;5.32;4.18;;;;;;;2.37;62.90;101381.66;686127;28;1751;-83
2022/04/11 01:03:28;;;;;;;5.20;4.03;;;;;;;2.44;62.62;101396.75;687538;28;1267;-83
2022/04/11 01:03:51;;;;;;;4.47;4.00;;;;;;;2.38;62.79;101393.75;687574;28;1208;-84
2022/04/11 01:04:23;;;;;;;5.00;4.05;;;;;;;2.45;62.99;101395.09;687612;28;945;-83
2022/04/11 01:04:43;;;;;;;4.80;4.25;;;;;;;2.38;62.72;101393.75;688616;28;1368;-83
2022/04/11 01:05:12;;;;;;;4.70;4.20;;;;;;;2.35;63.08;101383.22;689582;28;1766;-84
2022/04/11 01:05:33;;;;;;;5.40;4.63;;;;;;;2.40;62.74;101396.44;689691;28;1154;-84
2022/04/11 01:05:53;;;;;;;6.35;4.68;;;;;;;2.36;62.30;101397.91;684985;28;796;-84
2022/04/11 01:06:14;;;;;;;7.87;5.10;;;;;;;2.38;62.53;101388.59;687593;28;1076;-83
2022/04/11 01:06:34;;;;;;;6.80;4.80;;;;;;;2.38;62.73;101388.59;690716;28;1317;-83
2022/04/11 01:06:56;;;;;;;5.68;4.70;;;;;;;2.41;63.11;101393.06;687088;28;1142;-84
2022/04/11 01:07:19;;;;;;;4.95;4.47;;;;;;;2.37;62.77;101394.53;690424;28;1111;-83
2022/04/11 01:07:41;;;;;;;6.82;4.40;;;;;;;2.36;63.08;101385.00;692256;28;1196;-84
2022/04/11 01:08:07;;;;;;;7.60;4.40;;;;;;;2.43;62.76;101401.78;687596;28;1268;-84
2022/04/11 01:08:28;;;;;;;7.68;4.30;;;;;;;2.43;63.01;101402.69;687566;28;1108;-83
2022/04/11 01:08:48;;;;;;;4.65;4.25;;;;;;;2.31;62.75;101386.34;690069;28;1275;-84
2022/04/11 01:09:09;;;;;;;6.27;4.10;;;;;;;2.40;62.94;101402.47;690228;28;1151;-84
2022/04/11 01:09:29;;;;;;;6.30;4.38;;;;;;;2.37;62.87;101381.66;689751;28;1169;-84
2022/04/11 01:09:50;;;;;;;6.47;4.45;;;;;;;2.35;62.89;101383.22;687761;28;1208;-83
2022/04/11 01:10:11;;;;;;;5.00;4.50;;;;;;;2.36;63.17;101394.41;690934;28;1126;-83
2022/04/11 01:10:32;;;;;;;5.77;4.40;;;;;;;2.32;62.82;101389.06;687893;28;1176;-84
2022/04/11 01:10:54;;;;;;;5.93;4.20;;;;;;;2.37;62.71;101394.53;685393;28;1371;-83
2022/04/11 01:11:15;;;;;;;5.65;4.22;;;;;;;2.31;62.82;101384.69;685156;28;1242;-83
2022/04/11 01:11:36;;;;;;;4.70;4.20;;;;;;;2.36;62.66;101389.25;688881;28;1387;-83
2022/04/11 01:12:05;;;;;;;4.75;4.32;;;;;;;2.38;62.66;101395.44;690888;28;1193;-83
2022/04/11 01:12:26;;;;;;;4.70;4.20;;;;;;;2.37;63.08;101391.94;688017;28;1044;-83
2022/04/11 01:12:47;;;;;;;4.78;4.28;;;;;;;2.35;62.77;101378.06;685371;28;1707;-83
2022/04/11 01:13:08;;;;;;;5.55;4.38;;;;;;;2.35;62.59;101387.47;688127;28;1053;-83
2022/04/11 01:13:29;;;;;;;5.80;4.50;;;;;;;2.32;62.68;101388.16;690797;28;1299;-83
2022/04/11 01:13:50;;;;;;;5.50;4.40;;;;;;;2.32;62.63;101389.06;693422;28;1144;-84
2022/04/11 01:14:10;;;;;;;4.83;4.40;;;;;;;2.37;62.97;101391.06;690753;28;1133;-84
2022/04/11 01:14:31;;;;;;;4.75;4.28;;;;;;;2.28;63.15;101375.84;688329;28;1139;-84
2022/04/11 01:14:52;;;;;;;5.00;4.30;;;;;;;2.29;63.15;101383.69;688152;28;1155;-84
2022/04/11 01:15:14;;;;;;;5.15;4.32;;;;;;;2.40;62.93;101401.59;690753;28;2022;-84
2022/04/11 01:15:35;;;;;;;5.10;4.60;;;;;;;2.31;63.00;101382.13;690543;28;1094;-83
2022/04/11 01:15:58;;;;;;;5.67;4.57;;;;;;;2.25;62.82;101373.06;687980;28;1292;-83
2022/04/11 01:16:29;;;;;;;7.28;4.70;;;;;;;2.29;62.59;101382.78;693394;28;1214;-83
2022/04/11 01:16:51;;;;;;;6.82;4.60;;;;;;;2.26;63.03;101373.16;693585;28;1298;-83
2022/04/11 01:17:12;;;;;;;5.82;4.55;;;;;;;2.30;63.33;101384.56;691494;28;974;-83
2022/04/11 01:17:38;;;;;;;4.80;4.30;;;;;;;2.37;62.89;101391.06;691156;28;1151;-83
2022/04/11 01:18:00;;;;;;;4.95;4.45;;;;;;;2.29;62.88;101382.78;690803;28;1219;-83
2022/04/11 01:18:21;;;;;;;4.78;4.38;;;;;;;2.29;62.93;101382.78;687898;28;1235;-83
2022/04/11 01:18:41;;;;;;;4.93;4.50;;;;;;;2.27;63.20;101380.09;689577;28;1238;-84
2022/04/11 01:19:03;;;;;;;4.90;4.50;;;;;;;2.26;63.17;101375.72;690596;28;1311;-84
2022/04/11 01:19:23;;;;;;;5.10;4.60;;;;;;;2.28;62.77;101375.84;687678;28;1231;-83
2022/04/11 01:19:44;;;;;;;5.00;4.50;;;;;;;2.30;62.79;101384.56;691273;28;1150;-83
2022/04/11 01:20:09;;;;;;;4.90;4.50;;;;;;;2.28;63.17;101376.72;693451;28;1023;-84
2022/04/11 01:20:30;;;;;;;5.40;4.78;;;;;;;2.34;62.84;101390.84;692119;28;1078;-84
2022/04/11 01:20:50;;;;;;;5.30;4.45;;;;;;;2.28;62.99;101376.72;688308;28;868;-83
2022/04/11 01:21:11;;;;;;;5.68;4.28;;;;;;;2.26;63.21;101377.44;688047;28;1108;-84
2022/04/11 01:21:32;;;;;;;4.60;4.03;;;;;;;2.39;62.91;101399.81;690820;28;1147;-84
2022/04/11 01:21:52;;;;;;;6.40;4.20;;;;;;;2.30;63.00;101384.56;690688;28;1210;-84
2022/04/11 01:22:13;;;;;;;6.10;4.10;;;;;;;2.27;62.56;101379.22;687765;28;1289;-83
2022/04/11 01:22:34;;;;;;;5.50;4.10;;;;;;;2.25;62.92;101376.50;689952;28;1200;-83
2022/04/11 01:22:54;;;;;;;5.05;4.20;;;;;;;2.24;62.87;101376.41;688062;28;1260;-83
2022/04/11 01:23:16;;;;;;;4.43;4.00;;;;;;;2.32;63.01;101390.72;687963;28;980;-83
2022/04/11 01:23:37;;;;;;;4.65;4.00;;;;;;;2.37;62.80;101396.22;691497;28;1198;-84
2022/04/11 01:23:57;;;;;;;4.20;3.88;;;;;;;2.26;62.84;101382.56;688130;28;826;-83
2022/04/11 01:24:23;;;;;;;4.60;4.20;;;;;;;2.29;63.15;101393.09;685421;28;1090;-83
2022/04/11 01:24:47;;;;;;;5.96;4.98;;;;;;;2.28;63.09;101387.03;690287;28;1159;-84
2022/04/11 01:25:10;;;;;;;5.50;4.80;;;;;;;2.21;62.94;101363.31;696197;28;1453;-84
2022/04/11 01:25:32;;;;;;;5.20;4.70;;;;;;;2.25;63.23;101375.63;690595;28;1290;-83
2022/04/11 01:25:54;;;;;;;4.80;4.30;;;;;;;2.29;63.13;101383.69;682659;28;1224;-83
2022/04/11 01:26:16;;;;;;;4.80;4.30;;;;;;;2.26;63.11;101372.28;688205;28;1139;-83
2022/04/11 01:26:37;;;;;;;4.80;4.22;;;;;;;2.26;63.04;101378.31;693450;28;1385;-84
2022/04/11 01:26:58;;;;;;;4.70;4.20;;;;;;;2.32;63.05;101383.00;690826;28;784;-84
2022/04/11 01:27:20;;;;;;;5.05;4.38;;;;;;;2.26;63.00;101372.28;696243;28;1181;-83
2022/04/11 01:27:42;;;;;;;7.93;4.70;;;;;;;2.28;63.47;101379.28;692447;28;1159;-84
2022/04/11 01:28:04;;;;;;;7.90;4.60;;;;;;;2.29;63.07;101380.22;693408;28;1164;-83
2022/04/11 01:28:24;;;;;;;6.82;4.25;;;;;;;2.34;63.07;101390.84;695396;28;1139;-83
2022/04/11 01:28:48;;;;;;;4.60;4.20;;;;;;;2.25;63.18;101376.50;693507;28;1196;-83
2022/04/11 01:29:11;;;;;;;4.50;4.10;;;;;;;2.34;63.03;101396.91;692374;28;924;-84
2022/04/11 01:29:33;;;;;;;4.50;4.10;;;;;;;2.26;63.11;101386.03;682448;28;1286;-83
2022/04/11 01:29:53;;;;;;;4.20;3.80;;;;;;;2.28;63.13;101386.16;693289;28;1318;-83
2022/04/11 01:30:16;;;;;;;6.50;4.00;;;;;;;2.31;63.20;101386.34;690713;28;1136;-84
2022/04/11 01:30:38;;;;;;;7.93;3.97;;;;;;;2.24;63.33;101374.72;696089;28;1403;-83
2022/04/11 01:30:59;;;;;;;7.50;4.10;;;;;;;2.27;63.42;101381.78;693596;28;775;-83
2022/04/11 01:31:20;;;;;;;8.10;4.25;;;;;;;2.25;62.85;101375.63;690705;28;1191;-83
2022/04/11 01:31:40;;;;;;;8.43;4.30;;;;;;;2.25;62.79;101376.50;687954;28;1415;-84
2022/04/11 01:32:03;;;;;;;8.47;4.30;;;;;;;2.28;62.99;101381.88;690855;28;1020;-83
2022/04/11 01:32:24;;;;;;;4.50;4.10;;;;;;;2.31;63.03;101391.50;688079;28;1084;-84
2022/04/11 01:32:45;;;;;;;6.35;4.35;;;;;;;2.24;63.25;101373.81;692836;28;1119;-84
2022/04/11 01:33:15;;;;;;;7.44;4.30;;;;;;;2.34;63.30;101389.16;690114;28;1566;-83
2022/04/11 01:33:36;;;;;;;6.78;4.07;;;;;;;2.25;63.00;101380.78;694086;28;1043;-84
2022/04/11 01:33:59;;;;;;;7.05;4.10;;;;;;;2.23;63.09;101372.03;693467;28;1361;-83
2022/04/11 01:34:21;;;;;;;7.03;4.38;;;;;;;2.25;63.20;101375.63;688633;28;1346;-84
2022/04/11 01:34:41;;;;;;;6.50;4.60;;;;;;;2.23;63.09;101378.09;692310;28;1210;-84
2022/04/11 01:35:02;;;;;;;5.97;4.53;;;;;;;2.26;63.38;101385.16;692652;28;1265;-84
2022/04/11 01:35:26;;;;;;;5.07;4.47;;;;;;;2.28;63.38;101381.00;693371;28;1920;-83
2022/04/11 01:35:55;;;;;;;5.50;4.38;;;;;;;2.30;63.14;101385.47;690013;28;1504;-83
2022/04/11 01:36:16;;;;;;;4.90;4.25;;;;;;;2.29;62.85;101385.34;688062;28;938;-83
2022/04/11 01:36:37;;;;;;;4.63;4.22;;;;;;;2.22;63.01;101366.00;682641;29;1121;-83
2022/04/11 01:37:01;;;;;;;4.50;4.10;;;;;;;2.31;63.13;101386.34;685378;28;832;-83
2022/04/11 01:37:21;;;;;;;4.40;4.00;;;;;;;2.26;62.82;101374.84;688116;28;1148;-83
2022/04/11 01:37:42;;;;;;;4.50;4.10;;;;;;;2.25;63.32;101376.50;690634;28;1165;-83
2022/04/11 01:38:02;;;;;;;4.80;4.30;;;;;;;2.25;63.04;101375.63;690791;28;1170;-84
2022/04/11 01:38:23;;;;;;;4.90;4.40;;;;;;;2.28;63.04;101381.00;699011;28;1107;-84
2022/04/11 01:38:44;;;;;;;5.70;4.60;;;;;;;2.26;63.02;101374.84;693215;28;1533;-84
2022/04/11 01:39:05;;;;;;;5.20;4.70;;;;;;;2.22;62.95;101366.00;690686;28;1750;-84
2022/04/11 01:39:26;;;;;;;5.35;4.68;;;;;;;2.25;63.57;101375.63;693328;28;1167;-83
2022/04/11 01:39:47;;;;;;;5.07;4.60;;;;;;;2.32;63.23;101383.00;689997;28;1293;-83
2022/04/11 01:40:08;;;;;;;4.73;4.33;;;;;;;2.24;63.10;101368.66;688163;28;1119;-84
2022/04/11 01:40:29;;;;;;;4.78;4.38;;;;;;;2.32;63.04;101383.00;690673;28;1234;-83
2022/04/11 01:40:55;;;;;;;5.35;4.20;;;;;;;2.25;63.43;101373.94;690937;28;775;-83
2022/04/11 01:41:16;;;;;;;6.00;4.10;;;;;;;2.30;63.22;101382.91;688318;28;1053;-83
2022/04/11 01:41:37;;;;;;;6.63;4.60;;;;;;;2.30;63.19;101369.13;690066;28;1166;-83
2022/04/11 01:41:58;;;;;;;6.05;5.00;;;;;;;2.30;63.10;101370.03;688142;28;784;-83
2022/04/11 01:42:18;;;;;;;6.30;5.30;;;;;;;2.32;63.46;101376.16;693373;28;1004;-84
2022/04/11 01:42:39;;;;;;;6.00;5.25;;;;;;;2.31;63.46;101370.91;687982;28;1176;-84
2022/04/11 01:43:00;;;;;;;5.70;5.18;;;;;;;2.33;63.49;101384.81;687459;28;1277;-84
2022/04/11 01:43:22;;;;;;;5.50;4.97;;;;;;;2.29;63.21;101367.31;688077;28;1291;-83
2022/04/11 01:43:45;;;;;;;6.10;4.97;;;;;;;2.26;63.15;101373.16;685509;28;1171;-84
2022/04/11 01:44:06;;;;;;;6.80;5.10;;;;;;;2.26;63.52;101375.72;687917;28;1331;-83